Time;durP1;ratioP1;P1;durP2;ratioP2;P2;SDS_P1;SDS_P2;PMS_P1;PMS_P2;Temp;Humidity;BMP_temperature;BMP_pressure;BME280_temperature;BME280_humidity;BME280_pressure;Samples;Min_cycle;Max_cycle;Signal;HPM_P1;HPM_P2
2023/05/30 00:01:18;;;;;;;6.10;3.55;;;;;;;;;;5019147;28;20482;-71
2023/05/30 00:03:44;;;;;;;4.45;3.30;;;;;;;;;;5018726;28;20081;-71
2023/05/30 00:06:11;;;;;;;6.47;3.92;;;;;;;;;;5019271;28;20463;-71
2023/05/30 00:08:37;;;;;;;3.75;2.90;;;;;;;;;;5019541;28;20041;-70
2023/05/30 00:11:02;;;;;;;5.10;3.25;;;;;;;;;;5018408;28;20053;-69
2023/05/30 00:13:28;;;;;;;7.95;3.40;;;;;;;;;;5019368;28;20053;-70
2023/05/30 00:15:56;;;;;;;5.03;3.22;;;;;;;;;;5019738;28;20120;-70
2023/05/30 00:18:22;;;;;;;5.47;3.20;;;;;;;;;;5019934;28;20038;-69
2023/05/30 00:20:48;;;;;;;4.53;3.55;;;;;;;;;;5019080;28;20052;-70
2023/05/30 00:23:14;;;;;;;7.43;3.40;;;;;;;;;;5019351;28;20041;-70
2023/05/30 00:25:40;;;;;;;9.70;3.28;;;;;;;;;;5018232;28;20138;-70
2023/05/30 00:28:07;;;;;;;6.07;3.60;;;;;;;;;;5019784;28;20490;-71
2023/05/30 00:30:33;;;;;;;5.85;3.67;;;;;;;;;;5017476;28;20033;-73
2023/05/30 00:33:01;;;;;;;6.18;3.53;;;;;;;;;;5018860;28;20099;-68
2023/05/30 00:35:27;;;;;;;4.90;3.22;;;;;;;;;;5020001;28;20045;-68
2023/05/30 00:37:52;;;;;;;5.57;3.08;;;;;;;;;;5034654;28;20079;-68
2023/05/30 00:40:17;;;;;;;6.80;3.33;;;;;;;;;;5020291;28;20498;-68
2023/05/30 00:42:43;;;;;;;6.63;3.17;;;;;;;;;;5034010;28;20540;-69
2023/05/30 00:45:09;;;;;;;9.18;3.92;;;;;;;;;;5019722;28;20132;-69
2023/05/30 00:47:35;;;;;;;4.93;3.50;;;;;;;;;;5019845;28;20048;-69
2023/05/30 00:50:01;;;;;;;6.55;3.33;;;;;;;;;;5017929;28;21037;-70
2023/05/30 00:52:27;;;;;;;6.63;3.42;;;;;;;;;;5034832;28;20501;-68
2023/05/30 00:54:53;;;;;;;5.40;3.28;;;;;;;;;;5018007;28;20510;-69
2023/05/30 00:57:19;;;;;;;6.47;3.53;;;;;;;;;;5020100;28;20187;-70
2023/05/30 00:59:45;;;;;;;7.18;3.28;;;;;;;;;;5018433;28;20046;-70
2023/05/30 01:02:11;;;;;;;6.70;3.38;;;;;;;;;;5034739;28;20099;-72
2023/05/30 01:04:36;;;;;;;3.47;2.65;;;;;;;;;;5017871;28;20111;-72
2023/05/30 01:07:04;;;;;;;8.38;3.38;;;;;;;;;;5034254;28;20051;-72
2023/05/30 01:09:30;;;;;;;12.52;4.65;;;;;;;;;;5034977;28;21099;-72
2023/05/30 01:12:09;;;;;;;4.93;3.58;;;;;;;;;;5034604;28;20042;-72
2023/05/30 01:14:43;;;;;;;5.90;3.22;;;;;;;;;;5016882;28;20080;-72
2023/05/30 01:17:12;;;;;;;4.68;3.13;;;;;;;;;;5014828;28;20506;-72
2023/05/30 01:20:05;;;;;;;6.32;3.42;;;;;;;;;;5017555;28;20406;-72
2023/05/30 01:22:50;;;;;;;7.55;3.20;;;;;;;;;;5017203;28;20046;-72
2023/05/30 01:25:42;;;;;;;3.58;3.00;;;;;;;;;;5034434;28;20049;-72
2023/05/30 01:28:21;;;;;;;5.35;3.60;;;;;;;;;;5013441;28;20270;-72
2023/05/30 01:30:48;;;;;;;5.45;3.45;;;;;;;;;;5022706;28;20045;-72
2023/05/30 01:33:16;;;;;;;10.05;3.50;;;;;;;;;;5021087;28;20171;-71
2023/05/30 01:35:44;;;;;;;7.25;3.03;;;;;;;;;;5022235;28;20047;-71
2023/05/30 01:38:10;;;;;;;6.40;3.17;;;;;;;;;;5023076;28;20046;-71
2023/05/30 01:40:37;;;;;;;5.03;3.08;;;;;;;;;;5022737;28;20033;-71
2023/05/30 01:43:35;;;;;;;7.60;3.28;;;;;;;;;;5022506;28;20053;-70
2023/05/30 01:46:13;;;;;;;5.18;3.33;;;;;;;;;;5023787;28;20042;-70
2023/05/30 01:49:05;;;;;;;7.97;3.25;;;;;;;;;;5020883;28;20053;-70
2023/05/30 01:51:57;;;;;;;3.88;2.88;;;;;;;;;;5021277;28;20067;-72
2023/05/30 01:54:24;;;;;;;5.50;3.42;;;;;;;;;;5009767;28;20045;-73
2023/05/30 01:57:06;;;;;;;8.80;3.28;;;;;;;;;;5020310;28;20194;-74
2023/05/30 01:59:32;;;;;;;5.20;3.38;;;;;;;;;;5008598;28;20037;-73
2023/05/30 02:02:00;;;;;;;7.43;3.30;;;;;;;;;;5039360;28;20481;-73
2023/05/30 02:04:25;;;;;;;4.75;3.42;;;;;;;;;;5020625;28;20055;-73
2023/05/30 02:06:51;;;;;;;6.40;3.70;;;;;;;;;;5020533;28;20041;-75
2023/05/30 02:09:16;;;;;;;5.15;3.28;;;;;;;;;;5020447;28;20051;-73
2023/05/30 02:11:42;;;;;;;5.80;3.45;;;;;;;;;;5037530;28;20052;-74
2023/05/30 02:14:07;;;;;;;6.20;3.28;;;;;;;;;;5037505;28;20679;-74
2023/05/30 02:16:33;;;;;;;5.35;3.50;;;;;;;;;;5020520;28;20042;-69
2023/05/30 02:18:58;;;;;;;6.85;3.30;;;;;;;;;;5021871;28;20057;-69
2023/05/30 02:21:24;;;;;;;6.80;3.55;;;;;;;;;;5036888;28;20076;-69
2023/05/30 02:23:49;;;;;;;5.40;3.70;;;;;;;;;;5022415;28;20042;-70
2023/05/30 02:26:15;;;;;;;6.20;3.40;;;;;;;;;;5022464;28;20457;-69
2023/05/30 02:28:41;;;;;;;4.63;3.50;;;;;;;;;;5036650;28;20048;-70
2023/05/30 02:31:07;;;;;;;5.70;3.60;;;;;;;;;;5020060;28;20053;-69
2023/05/30 02:33:32;;;;;;;6.43;3.25;;;;;;;;;;5020224;28;20505;-70
2023/05/30 02:35:58;;;;;;;4.55;3.40;;;;;;;;;;5030588;28;20118;-70
2023/05/30 02:38:23;;;;;;;6.45;3.70;;;;;;;;;;5021642;28;20041;-70
2023/05/30 02:40:49;;;;;;;4.10;3.50;;;;;;;;;;5036821;28;20485;-71
2023/05/30 02:43:15;;;;;;;10.43;4.00;;;;;;;;;;5019340;28;20049;-71
2023/05/30 02:45:40;;;;;;;4.45;3.35;;;;;;;;;;5021618;28;20881;-70
2023/05/30 02:48:07;;;;;;;8.18;3.80;;;;;;;;;;5036955;28;20557;-71
2023/05/30 02:50:33;;;;;;;6.43;3.67;;;;;;;;;;5019455;28;20050;-71
2023/05/30 02:52:59;;;;;;;6.65;3.38;;;;;;;;;;5019222;28;20119;-69
2023/05/30 02:55:26;;;;;;;5.47;4.03;;;;;;;;;;5019910;28;20041;-69
2023/05/30 02:58:11;;;;;;;8.70;3.92;;;;;;;;;;5021470;28;20064;-69
2023/05/30 03:00:50;;;;;;;6.75;3.70;;;;;;;;;;5035820;28;20037;-69
2023/05/30 03:03:21;;;;;;;6.47;3.22;;;;;;;;;;5019062;28;20514;-71
2023/05/30 03:05:49;;;;;;;7.40;3.90;;;;;;;;;;5036056;28;20069;-69
2023/05/30 03:08:31;;;;;;;3.85;3.05;;;;;;;;;;5020089;28;20077;-69
2023/05/30 03:10:58;;;;;;;6.18;3.58;;;;;;;;;;5036142;28;20525;-70
2023/05/30 03:13:23;;;;;;;5.53;3.30;;;;;;;;;;5035979;28;20049;-70
2023/05/30 03:15:49;;;;;;;8.88;3.65;;;;;;;;;;5018723;28;20158;-73
2023/05/30 03:18:14;;;;;;;4.75;3.25;;;;;;;;;;5035797;28;20038;-71
2023/05/30 03:20:40;;;;;;;8.30;3.45;;;;;;;;;;5035792;28;20048;-71
2023/05/30 03:23:06;;;;;;;4.95;3.58;;;;;;;;;;5036151;28;20848;-71
2023/05/30 03:25:34;;;;;;;4.60;3.35;;;;;;;;;;5002198;28;20430;-68
2023/05/30 03:28:05;;;;;;;6.00;3.35;;;;;;;;;;5020422;28;20406;-71
2023/05/30 03:30:32;;;;;;;8.52;3.50;;;;;;;;;;5035655;28;20153;-69
2023/05/30 03:33:01;;;;;;;6.68;3.40;;;;;;;;;;5018956;28;20406;-69
2023/05/30 03:35:26;;;;;;;5.88;3.20;;;;;;;;;;5021013;28;20502;-68
2023/05/30 03:37:52;;;;;;;7.50;3.42;;;;;;;;;;5018968;28;20557;-68
2023/05/30 03:40:18;;;;;;;4.15;3.13;;;;;;;;;;5017212;28;20734;-71
2023/05/30 03:42:44;;;;;;;4.93;3.20;;;;;;;;;;5034162;28;20045;-71
2023/05/30 03:45:10;;;;;;;4.43;3.35;;;;;;;;;;5020984;28;20049;-68
2023/05/30 03:47:36;;;;;;;6.63;3.47;;;;;;;;;;5019210;28;20041;-68
2023/05/30 03:50:02;;;;;;;9.27;3.47;;;;;;;;;;5035532;28;20061;-68
2023/05/30 03:52:28;;;;;;;7.18;3.20;;;;;;;;;;5019013;28;20041;-68
2023/05/30 03:54:53;;;;;;;6.10;3.05;;;;;;;;;;5018009;28;20054;-69
2023/05/30 03:57:19;;;;;;;5.20;3.03;;;;;;;;;;5034479;28;20060;-69
2023/05/30 03:59:45;;;;;;;5.32;3.40;;;;;;;;;;5034847;28;20045;-69
2023/05/30 04:02:10;;;;;;;5.57;3.10;;;;;;;;;;5019168;28;20049;-70
2023/05/30 04:04:36;;;;;;;7.55;3.03;;;;;;;;;;5019584;28;20037;-73
2023/05/30 04:07:02;;;;;;;5.95;3.15;;;;;;;;;;5035554;28;20068;-72
2023/05/30 04:09:27;;;;;;;8.43;3.60;;;;;;;;;;5019354;28;20045;-75
2023/05/30 04:11:53;;;;;;;3.13;2.42;;;;;;;;;;5019195;28;20074;-74
2023/05/30 04:14:18;;;;;;;4.70;2.95;;;;;;;;;;5035143;28;20056;-73
2023/05/30 04:16:44;;;;;;;2.67;2.40;;;;;;;;;;5018681;28;20064;-73
2023/05/30 04:19:10;;;;;;;4.78;2.95;;;;;;;;;;5035324;28;20100;-73
2023/05/30 04:21:36;;;;;;;5.13;3.10;;;;;;;;;;5034652;28;20175;-74
2023/05/30 04:24:03;;;;;;;6.78;3.10;;;;;;;;;;5019955;28;20136;-73
2023/05/30 04:26:31;;;;;;;6.75;3.58;;;;;;;;;;5018838;28;20053;-72
2023/05/30 04:28:59;;;;;;;6.68;2.92;;;;;;;;;;5018107;28;20494;-73
2023/05/30 04:31:25;;;;;;;4.88;2.83;;;;;;;;;;5034533;28;21745;-72
2023/05/30 04:33:51;;;;;;;5.80;3.10;;;;;;;;;;5018249;28;20143;-72
2023/05/30 04:36:18;;;;;;;7.70;2.80;;;;;;;;;;5018161;28;20413;-72
2023/05/30 04:38:48;;;;;;;5.28;2.67;;;;;;;;;;5017980;28;20144;-72
2023/05/30 04:41:18;;;;;;;10.48;2.92;;;;;;;;;;5018847;28;20509;-73
2023/05/30 04:44:06;;;;;;;7.60;3.05;;;;;;;;;;5017705;28;20498;-73
2023/05/30 04:46:33;;;;;;;7.53;2.83;;;;;;;;;;5010201;28;20046;-74
2023/05/30 04:49:00;;;;;;;9.55;2.90;;;;;;;;;;5034950;28;20128;-74
2023/05/30 04:51:27;;;;;;;6.95;3.10;;;;;;;;;;5018074;28;20096;-74
2023/05/30 04:53:53;;;;;;;8.32;3.20;;;;;;;;;;5016965;28;20504;-73
2023/05/30 04:56:21;;;;;;;11.98;3.15;;;;;;;;;;5019205;28;20095;-73
2023/05/30 04:58:48;;;;;;;5.22;3.10;;;;;;;;;;5019561;28;20041;-74
2023/05/30 05:01:15;;;;;;;6.03;2.80;;;;;;;;;;5024093;28;20045;-73
2023/05/30 05:03:41;;;;;;;4.72;2.65;;;;;;;;;;5022147;28;20152;-72
2023/05/30 05:06:07;;;;;;;10.23;3.17;;;;;;;;;;5023331;28;20049;-73
2023/05/30 05:08:35;;;;;;;4.97;2.92;;;;;;;;;;5023624;28;20053;-72
2023/05/30 05:11:03;;;;;;;6.50;3.10;;;;;;;;;;5023057;28;20060;-74
2023/05/30 05:13:28;;;;;;;4.78;3.03;;;;;;;;;;5038504;28;20087;-73
2023/05/30 05:15:54;;;;;;;11.15;3.60;;;;;;;;;;5022131;28;20092;-72
2023/05/30 05:18:19;;;;;;;8.73;2.78;;;;;;;;;;5038589;28;20053;-73
2023/05/30 05:20:45;;;;;;;5.45;2.75;;;;;;;;;;5021814;28;20516;-72
2023/05/30 05:23:10;;;;;;;6.05;3.38;;;;;;;;;;5023310;28;20577;-73
2023/05/30 05:25:36;;;;;;;4.38;2.95;;;;;;;;;;5022863;28;20083;-73
2023/05/30 05:28:01;;;;;;;5.15;2.83;;;;;;;;;;5022563;28;20080;-74
2023/05/30 05:30:27;;;;;;;5.25;3.00;;;;;;;;;;5023129;28;20099;-72
2023/05/30 05:32:52;;;;;;;3.30;2.65;;;;;;;;;;5022717;28;20045;-73
2023/05/30 05:35:18;;;;;;;5.40;3.08;;;;;;;;;;5022985;28;20095;-73
2023/05/30 05:37:43;;;;;;;7.80;3.00;;;;;;;;;;5022414;28;20119;-72
2023/05/30 05:40:09;;;;;;;4.05;3.15;;;;;;;;;;5023565;28;20049;-72
2023/05/30 05:42:34;;;;;;;7.80;2.97;;;;;;;;;;5032162;28;20102;-71
2023/05/30 05:45:01;;;;;;;3.30;2.80;;;;;;;;;;5038252;28;20087;-71
2023/05/30 05:47:26;;;;;;;11.68;2.83;;;;;;;;;;5022483;28;20073;-72
2023/05/30 05:49:52;;;;;;;6.07;3.35;;;;;;;;;;5022083;28;20137;-71
2023/05/30 05:52:18;;;;;;;7.20;2.90;;;;;;;;;;5022502;28;20045;-72
2023/05/30 05:54:44;;;;;;;4.93;3.22;;;;;;;;;;5019666;28;20057;-72
2023/05/30 05:57:09;;;;;;;6.75;2.95;;;;;;;;;;5021961;28;20095;-71
2023/05/30 05:59:35;;;;;;;3.20;2.80;;;;;;;;;;5020929;28;20076;-72
2023/05/30 06:02:00;;;;;;;5.85;3.25;;;;;;;;;;5019189;28;20045;-73
2023/05/30 06:04:26;;;;;;;5.68;2.80;;;;;;;;;;5021187;28;20045;-72
2023/05/30 06:06:51;;;;;;;4.80;2.88;;;;;;;;;;5018642;28;20509;-73
2023/05/30 06:09:17;;;;;;;7.32;3.08;;;;;;;;;;5035476;28;20049;-74
2023/05/30 06:11:42;;;;;;;9.20;3.17;;;;;;;;;;5019722;28;21051;-72
2023/05/30 06:14:08;;;;;;;4.13;2.95;;;;;;;;;;5019720;28;20057;-73
2023/05/30 06:16:33;;;;;;;3.85;2.85;;;;;;;;;;5020963;28;20056;-72
2023/05/30 06:18:58;;;;;;;7.10;3.20;;;;;;;;;;5019374;28;20046;-73
2023/05/30 06:21:24;;;;;;;12.30;3.55;;;;;;;;;;5019878;28;20095;-73
2023/05/30 06:23:49;;;;;;;5.15;3.28;;;;;;;;;;5020026;28;20069;-70
2023/05/30 06:26:15;;;;;;;9.07;3.22;;;;;;;;;;5012310;28;20049;-70
2023/05/30 06:28:40;;;;;;;5.63;3.80;;;;;;;;;;5018963;28;20053;-70
2023/05/30 06:31:06;;;;;;;6.35;3.17;;;;;;;;;;5017943;28;20056;-70
2023/05/30 06:33:31;;;;;;;5.95;3.08;;;;;;;;;;5016629;28;20910;-69
2023/05/30 06:35:57;;;;;;;8.35;2.95;;;;;;;;;;5034512;28;20045;-72
2023/05/30 06:38:23;;;;;;;4.57;2.80;;;;;;;;;;5017949;28;20945;-69
2023/05/30 06:40:49;;;;;;;5.93;3.00;;;;;;;;;;5015075;28;20770;-68
2023/05/30 06:43:15;;;;;;;3.47;2.60;;;;;;;;;;5011777;28;20049;-69
2023/05/30 06:45:40;;;;;;;4.47;2.80;;;;;;;;;;5012065;28;20068;-72
2023/05/30 06:48:06;;;;;;;5.07;2.70;;;;;;;;;;5014342;28;20125;-71
2023/05/30 06:50:31;;;;;;;6.55;3.08;;;;;;;;;;5016562;28;20874;-70
2023/05/30 06:52:57;;;;;;;4.25;2.80;;;;;;;;;;5015714;28;20091;-72
2023/05/30 06:55:23;;;;;;;7.03;2.95;;;;;;;;;;4997785;28;20046;-72
2023/05/30 06:57:54;;;;;;;3.28;2.53;;;;;;;;;;5014622;28;20125;-70
2023/05/30 07:00:20;;;;;;;6.30;2.58;;;;;;;;;;5017049;28;20045;-70
2023/05/30 07:02:45;;;;;;;3.28;2.72;;;;;;;;;;5017531;28;20042;-71
2023/05/30 07:05:11;;;;;;;5.43;3.03;;;;;;;;;;5016795;28;20134;-71
2023/05/30 07:07:39;;;;;;;7.35;2.60;;;;;;;;;;5000002;28;20048;-72
2023/05/30 07:10:06;;;;;;;7.88;3.30;;;;;;;;;;5017989;28;20041;-72
2023/05/30 07:12:32;;;;;;;4.68;3.03;;;;;;;;;;5017940;28;20494;-71
2023/05/30 07:14:58;;;;;;;3.95;2.80;;;;;;;;;;5016891;28;20851;-72
2023/05/30 07:17:23;;;;;;;7.68;2.88;;;;;;;;;;5016888;28;20209;-71
2023/05/30 07:19:49;;;;;;;8.38;2.88;;;;;;;;;;5018270;28;21180;-72
2023/05/30 07:22:14;;;;;;;5.88;2.83;;;;;;;;;;5017174;28;20053;-70
2023/05/30 07:24:40;;;;;;;6.47;3.05;;;;;;;;;;5023106;28;20041;-70
2023/05/30 07:27:06;;;;;;;4.43;2.83;;;;;;;;;;5016015;28;20559;-70
2023/05/30 07:29:31;;;;;;;4.72;2.50;;;;;;;;;;5017865;28;20406;-69
2023/05/30 07:31:56;;;;;;;2.58;2.38;;;;;;;;;;5018148;28;20117;-72
2023/05/30 07:34:22;;;;;;;7.78;2.78;;;;;;;;;;5018524;28;20091;-71
2023/05/30 07:36:47;;;;;;;5.25;2.75;;;;;;;;;;5016625;28;20041;-72
2023/05/30 07:39:13;;;;;;;5.55;3.70;;;;;;;;;;5016905;28;20064;-72
2023/05/30 07:41:38;;;;;;;10.15;3.63;;;;;;;;;;5017528;28;20045;-72
2023/05/30 07:44:04;;;;;;;8.13;2.88;;;;;;;;;;5015529;28;20041;-72
2023/05/30 07:46:29;;;;;;;8.15;3.13;;;;;;;;;;5016502;28;20041;-71
2023/05/30 07:48:55;;;;;;;3.92;2.90;;;;;;;;;;5016766;28;20491;-70
2023/05/30 07:51:22;;;;;;;8.20;2.97;;;;;;;;;;5015500;28;20045;-72
2023/05/30 07:53:48;;;;;;;4.78;2.55;;;;;;;;;;5015018;28;20053;-71
2023/05/30 07:56:13;;;;;;;4.10;2.40;;;;;;;;;;5016859;28;20053;-71
2023/05/30 07:58:39;;;;;;;5.72;2.72;;;;;;;;;;5016492;28;20045;-69
2023/05/30 08:01:05;;;;;;;4.57;2.38;;;;;;;;;;5016943;28;20046;-71
2023/05/30 08:03:30;;;;;;;6.47;2.70;;;;;;;;;;5013919;28;20080;-73
2023/05/30 08:05:56;;;;;;;7.97;3.17;;;;;;;;;;5032834;28;20409;-70
2023/05/30 08:08:21;;;;;;;6.82;2.60;;;;;;;;;;5032538;28;20053;-71
2023/05/30 08:10:47;;;;;;;3.42;3.10;;;;;;;;;;5031819;28;20120;-72
2023/05/30 08:13:14;;;;;;;5.05;3.08;;;;;;;;;;5017852;28;20084;-70
2023/05/30 08:15:40;;;;;;;8.18;2.75;;;;;;;;;;5018925;28;20390;-72
2023/05/30 08:18:08;;;;;;;8.15;2.75;;;;;;;;;;5016903;28;20494;-71
2023/05/30 08:20:35;;;;;;;5.40;3.03;;;;;;;;;;5017152;28;21009;-71
2023/05/30 08:23:01;;;;;;;4.93;2.63;;;;;;;;;;5017306;28;20049;-70
2023/05/30 08:25:32;;;;;;;4.47;2.33;;;;;;;;;;5018110;28;20401;-72
2023/05/30 08:27:59;;;;;;;7.22;2.40;;;;;;;;;;5015210;28;20049;-72
2023/05/30 08:30:25;;;;;;;4.07;2.65;;;;;;;;;;5016327;28;20053;-73
2023/05/30 08:32:50;;;;;;;6.05;2.88;;;;;;;;;;5016102;28;20397;-72
2023/05/30 08:35:16;;;;;;;4.63;2.80;;;;;;;;;;5014331;28;20076;-73
2023/05/30 08:37:41;;;;;;;6.45;2.53;;;;;;;;;;5017475;28;20045;-73
2023/05/30 08:40:12;;;;;;;5.32;3.05;;;;;;;;;;5016938;28;20057;-74
2023/05/30 08:42:38;;;;;;;6.47;2.60;;;;;;;;;;5015741;28;20053;-71
2023/05/30 08:45:05;;;;;;;3.53;2.53;;;;;;;;;;5014708;28;20130;-72
2023/05/30 08:47:31;;;;;;;11.00;2.80;;;;;;;;;;5016415;28;20045;-72
2023/05/30 08:50:01;;;;;;;9.52;3.05;;;;;;;;;;5016683;28;20046;-73
2023/05/30 08:52:29;;;;;;;4.32;2.95;;;;;;;;;;5016021;28;20132;-71
2023/05/30 08:55:07;;;;;;;8.63;2.90;;;;;;;;;;5017138;28;21099;-71
2023/05/30 08:57:40;;;;;;;4.65;3.25;;;;;;;;;;5017807;28;20038;-71
2023/05/30 09:00:09;;;;;;;8.30;2.75;;;;;;;;;;5016349;28;20157;-72
2023/05/30 09:02:35;;;;;;;8.63;3.03;;;;;;;;;;5017900;28;20056;-73
2023/05/30 09:05:03;;;;;;;4.88;2.58;;;;;;;;;;5017834;28;20557;-70
2023/05/30 09:07:29;;;;;;;6.07;3.03;;;;;;;;;;5016859;28;20132;-71
2023/05/30 09:09:55;;;;;;;11.02;2.88;;;;;;;;;;5018046;28;20389;-72
2023/05/30 09:12:22;;;;;;;6.85;3.45;;;;;;;;;;5017551;28;20053;-71
2023/05/30 09:14:47;;;;;;;6.97;3.50;;;;;;;;;;5017555;28;20045;-70
2023/05/30 09:17:13;;;;;;;4.57;2.97;;;;;;;;;;5017044;28;20049;-71
2023/05/30 09:19:39;;;;;;;4.88;2.75;;;;;;;;;;5017962;28;20064;-71
2023/05/30 09:22:06;;;;;;;3.97;2.70;;;;;;;;;;5017729;28;20077;-72
2023/05/30 09:24:56;;;;;;;7.15;2.53;;;;;;;;;;5015699;28;20052;-74
2023/05/30 09:27:22;;;;;;;4.22;2.47;;;;;;;;;;5027223;28;20401;-72
2023/05/30 09:29:48;;;;;;;6.07;2.40;;;;;;;;;;5014311;28;20899;-71
2023/05/30 09:32:13;;;;;;;7.88;2.70;;;;;;;;;;5016750;28;20050;-71
2023/05/30 09:34:39;;;;;;;4.28;2.70;;;;;;;;;;5030847;28;20140;-72
2023/05/30 09:37:04;;;;;;;6.22;2.83;;;;;;;;;;5014988;28;20041;-72
2023/05/30 09:39:32;;;;;;;6.47;3.15;;;;;;;;;;5015951;28;20140;-73
2023/05/30 09:41:58;;;;;;;8.95;3.15;;;;;;;;;;5015789;28;20053;-73
2023/05/30 09:44:24;;;;;;;13.32;3.30;;;;;;;;;;5016840;28;20107;-72
2023/05/30 09:46:57;;;;;;;7.60;2.50;;;;;;;;;;5020361;28;20319;-71
2023/05/30 09:49:22;;;;;;;4.78;2.55;;;;;;;;;;5020096;28;20037;-72
2023/05/30 09:51:50;;;;;;;3.00;2.40;;;;;;;;;;5020031;28;20056;-72
2023/05/30 09:54:15;;;;;;;6.90;2.80;;;;;;;;;;5019907;28;20703;-73
2023/05/30 09:56:42;;;;;;;4.45;2.80;;;;;;;;;;5018855;28;20045;-72
2023/05/30 09:59:13;;;;;;;6.13;2.72;;;;;;;;;;5019656;28;20045;-72
2023/05/30 10:01:48;;;;;;;5.65;2.72;;;;;;;;;;5019923;28;20045;-71
2023/05/30 10:04:17;;;;;;;6.13;2.60;;;;;;;;;;5002391;28;20050;-72
2023/05/30 10:06:54;;;;;;;4.63;2.78;;;;;;;;;;5020056;28;20057;-71
2023/05/30 10:09:21;;;;;;;4.90;2.80;;;;;;;;;;5021108;28;20167;-72
2023/05/30 10:11:47;;;;;;;4.60;2.90;;;;;;;;;;5020822;28;20106;-72
2023/05/30 10:14:13;;;;;;;5.43;3.20;;;;;;;;;;5019225;28;20056;-71
2023/05/30 10:16:59;;;;;;;4.18;2.95;;;;;;;;;;5019649;28;20845;-72
2023/05/30 10:19:25;;;;;;;6.00;2.50;;;;;;;;;;5017665;28;20096;-72
2023/05/30 10:21:53;;;;;;;5.97;2.63;;;;;;;;;;5019358;28;20486;-71
2023/05/30 10:24:20;;;;;;;4.97;2.80;;;;;;;;;;5019145;28;20075;-72
2023/05/30 10:26:53;;;;;;;5.50;2.70;;;;;;;;;;5019799;28;20125;-72
2023/05/30 10:29:22;;;;;;;4.97;2.67;;;;;;;;;;5020502;28;20052;-73
2023/05/30 10:31:51;;;;;;;4.90;2.83;;;;;;;;;;5018742;28;20128;-74
2023/05/30 10:34:20;;;;;;;9.25;2.50;;;;;;;;;;5017294;28;20053;-74
2023/05/30 10:36:46;;;;;;;5.40;2.92;;;;;;;;;;5016883;28;20960;-73
2023/05/30 10:39:33;;;;;;;3.75;2.75;;;;;;;;;;5017438;28;20041;-71
2023/05/30 10:42:05;;;;;;;3.60;2.55;;;;;;;;;;5018720;28;20049;-73
2023/05/30 10:44:46;;;;;;;4.18;2.65;;;;;;;;;;5016954;28;20047;-73
2023/05/30 10:47:47;;;;;;;3.50;2.50;;;;;;;;;;5031048;28;20195;-73
2023/05/30 10:50:19;;;;;;;6.90;3.20;;;;;;;;;;5035371;28;20148;-75
2023/05/30 10:52:46;;;;;;;4.43;2.80;;;;;;;;;;5018228;28;20057;-71
2023/05/30 10:55:12;;;;;;;3.67;2.53;;;;;;;;;;5018811;28;20084;-72
2023/05/30 10:57:40;;;;;;;5.38;2.45;;;;;;;;;;5020570;28;20041;-71
2023/05/30 11:00:25;;;;;;;8.95;2.53;;;;;;;;;;5021936;28;20297;-72
2023/05/30 11:02:52;;;;;;;4.32;2.78;;;;;;;;;;5021870;28;20064;-73
2023/05/30 11:05:21;;;;;;;5.72;2.47;;;;;;;;;;5021395;28;20727;-74
2023/05/30 11:07:47;;;;;;;3.63;2.25;;;;;;;;;;5017760;28;20075;-74
2023/05/30 11:10:14;;;;;;;4.97;2.20;;;;;;;;;;5018872;28;20065;-74
2023/05/30 11:12:44;;;;;;;9.90;2.60;;;;;;;;;;5020258;28;20045;-74
2023/05/30 11:15:14;;;;;;;5.05;2.20;;;;;;;;;;5020792;28;20054;-72
2023/05/30 11:17:40;;;;;;;13.05;2.95;;;;;;;;;;5018315;28;20200;-70
2023/05/30 11:20:14;;;;;;;4.63;2.38;;;;;;;;;;5019074;28;20114;-72
2023/05/30 11:22:41;;;;;;;3.45;2.40;;;;;;;;;;5018006;28;20569;-71
2023/05/30 11:25:26;;;;;;;5.00;2.20;;;;;;;;;;5018234;28;20488;-73
2023/05/30 11:28:03;;;;;;;5.85;2.55;;;;;;;;;;5019289;28;20387;-73
2023/05/30 11:30:40;;;;;;;3.17;2.10;;;;;;;;;;5009927;28;20613;-74
2023/05/30 11:33:13;;;;;;;3.45;2.38;;;;;;;;;;5018019;28;20103;-74
2023/05/30 11:35:38;;;;;;;6.45;2.45;;;;;;;;;;5018855;28;20156;-73
2023/05/30 11:38:06;;;;;;;5.15;2.22;;;;;;;;;;5019356;28;20220;-73
2023/05/30 11:40:31;;;;;;;4.18;2.35;;;;;;;;;;5016598;28;20144;-74
2023/05/30 11:42:57;;;;;;;5.80;2.35;;;;;;;;;;5015230;28;20057;-75
2023/05/30 11:45:24;;;;;;;15.43;2.50;;;;;;;;;;5017414;28;20425;-74
2023/05/30 11:47:49;;;;;;;4.30;1.98;;;;;;;;;;5019505;28;20553;-74
2023/05/30 11:50:15;;;;;;;3.00;2.15;;;;;;;;;;5018138;28;20045;-73
2023/05/30 11:52:42;;;;;;;8.15;2.92;;;;;;;;;;5013551;28;20052;-74
2023/05/30 11:55:08;;;;;;;3.55;2.40;;;;;;;;;;5032466;28;20106;-74
2023/05/30 11:57:34;;;;;;;3.55;2.72;;;;;;;;;;5020319;28;20127;-74
2023/05/30 12:00:00;;;;;;;3.92;2.40;;;;;;;;;;5020242;28;20056;-73
2023/05/30 12:02:29;;;;;;;3.42;2.28;;;;;;;;;;5019279;28;20045;-74
2023/05/30 12:05:02;;;;;;;6.82;2.28;;;;;;;;;;5018546;28;20056;-73
2023/05/30 12:07:28;;;;;;;2.80;2.33;;;;;;;;;;5019505;28;20049;-73
2023/05/30 12:09:54;;;;;;;3.80;2.13;;;;;;;;;;5019915;28;20045;-73
2023/05/30 12:12:20;;;;;;;5.70;2.50;;;;;;;;;;5020148;28;20057;-75
2023/05/30 12:14:45;;;;;;;6.80;2.30;;;;;;;;;;5018626;28;20568;-75
2023/05/30 12:17:18;;;;;;;6.10;2.60;;;;;;;;;;5019787;28;20057;-74
2023/05/30 12:19:46;;;;;;;6.72;2.67;;;;;;;;;;5020490;28;20041;-73
2023/05/30 12:22:15;;;;;;;4.15;2.30;;;;;;;;;;5020028;28;20067;-72
2023/05/30 12:24:41;;;;;;;4.18;2.58;;;;;;;;;;5018078;28;20489;-74
2023/05/30 12:27:22;;;;;;;9.25;2.17;;;;;;;;;;5019830;28;20056;-73
2023/05/30 12:29:48;;;;;;;3.97;2.60;;;;;;;;;;5010818;28;20103;-73
2023/05/30 12:32:20;;;;;;;10.95;2.90;;;;;;;;;;5019803;28;20378;-74
2023/05/30 12:34:46;;;;;;;6.57;2.60;;;;;;;;;;5017535;28;20056;-75
2023/05/30 12:37:13;;;;;;;5.00;2.60;;;;;;;;;;5016537;28;20070;-74
2023/05/30 12:39:51;;;;;;;3.97;2.45;;;;;;;;;;5018595;28;20045;-75
2023/05/30 12:42:27;;;;;;;4.38;2.58;;;;;;;;;;5020368;28;20102;-73
2023/05/30 12:44:55;;;;;;;2.70;2.20;;;;;;;;;;5003235;28;20464;-73
2023/05/30 12:47:21;;;;;;;3.40;2.42;;;;;;;;;;5018958;28;20046;-73
2023/05/30 12:49:47;;;;;;;4.35;2.60;;;;;;;;;;5019921;28;20410;-72
2023/05/30 12:52:14;;;;;;;5.07;2.72;;;;;;;;;;5020044;28;20075;-71
2023/05/30 12:54:40;;;;;;;2.63;2.42;;;;;;;;;;5018354;28;20297;-71
2023/05/30 12:57:06;;;;;;;2.63;2.25;;;;;;;;;;5018605;28;20052;-75
2023/05/30 12:59:32;;;;;;;5.18;2.20;;;;;;;;;;5017724;28;20088;-72
2023/05/30 13:01:58;;;;;;;4.07;2.20;;;;;;;;;;5018530;28;20072;-76
2023/05/30 13:04:23;;;;;;;10.80;2.65;;;;;;;;;;5001884;28;20042;-75
2023/05/30 13:06:49;;;;;;;7.03;2.72;;;;;;;;;;5017720;28;20053;-72
2023/05/30 13:09:15;;;;;;;8.18;2.35;;;;;;;;;;5017759;28;20815;-73
2023/05/30 13:11:41;;;;;;;4.70;2.80;;;;;;;;;;5002157;28;20045;-73
2023/05/30 13:14:06;;;;;;;6.03;2.60;;;;;;;;;;5019141;28;20060;-73
2023/05/30 13:16:32;;;;;;;2.83;2.50;;;;;;;;;;5033994;28;20146;-74
2023/05/30 13:18:57;;;;;;;6.68;2.85;;;;;;;;;;5020922;28;20132;-73
2023/05/30 13:21:23;;;;;;;5.72;2.97;;;;;;;;;;5030203;28;20033;-74
2023/05/30 13:23:49;;;;;;;6.28;2.80;;;;;;;;;;5034586;28;20513;-73
2023/05/30 13:26:14;;;;;;;7.28;2.90;;;;;;;;;;5025110;28;20072;-73
2023/05/30 13:28:40;;;;;;;3.78;2.28;;;;;;;;;;5021668;28;20064;-73
2023/05/30 13:31:05;;;;;;;4.13;3.03;;;;;;;;;;5021782;28;20060;-74
2023/05/30 13:33:35;;;;;;;9.45;3.13;;;;;;;;;;5004184;28;20048;-73
2023/05/30 13:36:01;;;;;;;6.15;2.85;;;;;;;;;;5021338;28;20085;-72
2023/05/30 13:38:29;;;;;;;13.02;3.05;;;;;;;;;;5022430;28;20624;-72
2023/05/30 13:40:55;;;;;;;3.80;2.55;;;;;;;;;;5022966;28;20065;-73
2023/05/30 13:43:21;;;;;;;7.57;3.00;;;;;;;;;;5020934;28;20081;-74
2023/05/30 13:45:50;;;;;;;6.18;2.80;;;;;;;;;;5023011;28;20461;-76
2023/05/30 13:48:19;;;;;;;5.10;2.90;;;;;;;;;;5023337;28;20042;-73
2023/05/30 13:50:45;;;;;;;5.82;2.75;;;;;;;;;;5021803;28;20037;-74
2023/05/30 13:53:11;;;;;;;8.50;2.67;;;;;;;;;;5023313;28;20041;-74
2023/05/30 13:55:36;;;;;;;8.20;3.60;;;;;;;;;;5022157;28;20038;-74
2023/05/30 13:58:02;;;;;;;6.30;2.88;;;;;;;;;;5022326;28;20136;-74
2023/05/30 14:00:27;;;;;;;14.43;3.35;;;;;;;;;;5021254;28;20524;-73
2023/05/30 14:02:53;;;;;;;8.57;3.15;;;;;;;;;;5020114;28;20033;-75
2023/05/30 14:05:20;;;;;;;4.15;2.60;;;;;;;;;;5020962;28;20045;-74
2023/05/30 14:07:48;;;;;;;2.95;2.67;;;;;;;;;;5016857;28;20038;-71
2023/05/30 14:10:15;;;;;;;5.95;3.05;;;;;;;;;;5021750;28;20136;-74
2023/05/30 14:12:41;;;;;;;4.38;2.60;;;;;;;;;;5018952;28;20140;-74
2023/05/30 14:15:07;;;;;;;9.93;3.20;;;;;;;;;;5036131;28;20564;-74
2023/05/30 14:17:33;;;;;;;6.03;2.53;;;;;;;;;;5022335;28;20041;-74
2023/05/30 14:19:58;;;;;;;4.68;2.40;;;;;;;;;;5037198;28;20049;-73
2023/05/30 14:22:24;;;;;;;8.52;3.03;;;;;;;;;;5019842;28;20464;-73
2023/05/30 14:24:49;;;;;;;7.20;2.92;;;;;;;;;;5022216;28;20045;-76
2023/05/30 14:27:14;;;;;;;4.15;2.95;;;;;;;;;;5036532;28;20048;-73
2023/05/30 14:29:40;;;;;;;3.40;2.80;;;;;;;;;;5021563;28;20053;-73
2023/05/30 14:32:06;;;;;;;8.48;3.28;;;;;;;;;;5019592;28;20136;-75
2023/05/30 14:34:32;;;;;;;10.93;2.90;;;;;;;;;;5022116;28;20152;-76
2023/05/30 14:37:01;;;;;;;5.70;3.13;;;;;;;;;;5017517;28;20494;-75
2023/05/30 14:39:27;;;;;;;5.80;2.75;;;;;;;;;;5020762;28;20063;-74
2023/05/30 14:41:52;;;;;;;7.20;2.80;;;;;;;;;;5021880;28;20045;-78
2023/05/30 14:44:18;;;;;;;5.10;2.70;;;;;;;;;;5021552;28;20060;-76
2023/05/30 14:46:43;;;;;;;5.43;2.83;;;;;;;;;;5021162;28;20047;-74